Altona, New York
Current Conditions -  °F | °C
As of 1:53 AM on Wednesday 26 Nov 2014 (Local Time) from KPBG Reporting Station
Few Clouds Few Clouds  
Wind Chill: 30°   Ceiling: Unl
Heat Index: 37°   Visibility: 10mi
Dew Point: 22°   Wind: 9mph
Humidity: 54%   Direction: 280°W
Pressure: 30.17"   Gusts: 20mph
Location:  44.89°N, 73.66°W
Report Text: KPBG 260653Z AUTO 28008G17KT 10SM FEW045 03/M06 A3017 RMK AO2 SLP219 T00281056
Loading
Personal Weather Stations






























Interactive Weather Map New forecast layout! Learn more

10-Day Weather Forecast

Advertisements
Track Severe Weather on mobile